Time;durP1;ratioP1;P1;durP2;ratioP2;P2;SDS_P1;SDS_P2;PMS_P1;PMS_P2;Temp;Humidity;BMP_temperature;BMP_pressure;BME280_temperature;BME280_humidity;BME280_pressure;Samples;Min_cycle;Max_cycle;Signal;HPM_P1;HPM_P2
2023/03/11 00:00:55;;;;;;;17.30;9.50;;;;;;;10.88;100.00;93387.50;4950584;28;20284;-73
2023/03/11 00:03:23;;;;;;;16.27;9.70;;;;;;;10.94;100.00;93395.16;4951705;28;20349;-74
2023/03/11 00:05:50;;;;;;;13.10;7.83;;;;;;;10.90;100.00;93395.91;4936858;28;20237;-73
2023/03/11 00:08:18;;;;;;;10.50;5.50;;;;;;;10.64;100.00;93411.19;4939620;28;20229;-73
2023/03/11 00:10:44;;;;;;;6.93;3.20;;;;;;;10.52;100.00;93401.81;4933235;28;20228;-73
2023/03/11 00:13:10;;;;;;;6.73;3.00;;;;;;;10.64;100.00;93395.50;4929347;28;20316;-73
2023/03/11 00:15:39;;;;;;;4.30;2.03;;;;;;;10.47;100.00;93379.00;4924130;28;21478;-75
2023/03/11 00:18:05;;;;;;;4.30;2.10;;;;;;;10.40;100.00;93388.00;4913439;28;20233;-73
2023/03/11 00:20:32;;;;;;;4.00;1.70;;;;;;;10.34;100.00;93368.81;4933531;28;20236;-74
2023/03/11 00:22:58;;;;;;;3.57;1.40;;;;;;;10.07;100.00;93355.53;4922102;28;20228;-73
2023/03/11 00:25:24;;;;;;;3.10;1.30;;;;;;;10.20;100.00;93359.69;4928894;28;20256;-74
2023/03/11 00:27:50;;;;;;;2.77;1.40;;;;;;;10.17;100.00;93354.97;4948538;28;20229;-73
2023/03/11 00:30:16;;;;;;;2.43;1.50;;;;;;;10.22;100.00;93351.63;4963386;28;20977;-74
2023/03/11 00:32:41;;;;;;;3.43;1.40;;;;;;;10.24;100.00;93358.22;4959305;28;20312;-73
2023/03/11 00:35:08;;;;;;;3.83;1.60;;;;;;;10.32;100.00;93354.44;4928235;28;20286;-73
2023/03/11 00:37:33;;;;;;;3.17;1.30;;;;;;;10.39;100.00;93366.28;4942904;28;20239;-74
2023/03/11 00:39:59;;;;;;;2.30;1.00;;;;;;;10.43;100.00;93350.94;4981934;28;20268;-73
2023/03/11 00:42:25;;;;;;;2.67;1.20;;;;;;;10.50;100.00;93355.00;4968293;28;20730;-74
2023/03/11 00:44:51;;;;;;;1.47;1.10;;;;;;;10.58;100.00;93365.03;4951917;28;20244;-72
2023/03/11 00:47:16;;;;;;;1.90;1.10;;;;;;;10.59;100.00;93366.66;4932211;28;20228;-72
2023/03/11 00:49:42;;;;;;;2.20;1.30;;;;;;;10.45;100.00;93348.88;4960457;28;20232;-72
2023/03/11 00:52:07;;;;;;;2.07;1.10;;;;;;;10.58;100.00;93344.13;4939544;28;20224;-73
2023/03/11 00:54:33;;;;;;;4.37;1.20;;;;;;;10.69;100.00;93335.41;4935291;28;20236;-73
2023/03/11 00:56:58;;;;;;;2.30;1.20;;;;;;;10.56;100.00;93330.50;4934492;28;20699;-73
2023/03/11 00:59:24;;;;;;;1.73;1.10;;;;;;;10.20;100.00;93319.72;4947700;28;20233;-72
2023/03/11 01:01:49;;;;;;;2.83;1.20;;;;;;;10.34;100.00;93319.16;4939923;28;20256;-74
2023/03/11 01:04:15;;;;;;;3.30;1.30;;;;;;;10.24;100.00;93321.63;4912667;28;20236;-73
2023/03/11 01:06:40;;;;;;;1.73;1.30;;;;;;;10.10;100.00;93310.63;4954841;28;20235;-73
2023/03/11 01:09:06;;;;;;;2.20;1.40;;;;;;;10.20;100.00;93314.47;4941614;28;20230;-72
2023/03/11 01:11:31;;;;;;;3.53;1.50;;;;;;;9.97;100.00;93315.34;4931365;28;20567;-74
2023/03/11 01:13:56;;;;;;;2.23;1.10;;;;;;;10.14;100.00;93316.22;4946210;28;20243;-73
2023/03/11 01:16:22;;;;;;;2.23;1.20;;;;;;;10.24;100.00;93307.75;4932282;28;20237;-72
2023/03/11 01:18:47;;;;;;;1.77;1.20;;;;;;;10.29;100.00;93298.16;4934565;28;20260;-72
2023/03/11 01:21:13;;;;;;;3.67;1.17;;;;;;;10.16;100.00;93290.63;4949379;28;20245;-74
2023/03/11 01:23:39;;;;;;;1.40;1.10;;;;;;;10.21;100.00;93289.91;4968391;28;20617;-73
2023/03/11 01:26:05;;;;;;;2.13;1.20;;;;;;;10.17;100.00;93270.50;4961970;28;20339;-73
2023/03/11 01:28:30;;;;;;;2.67;1.27;;;;;;;10.15;100.00;93273.34;4928250;28;20243;-73
2023/03/11 01:30:55;;;;;;;1.50;1.20;;;;;;;10.12;100.00;93260.78;4943509;28;20936;-74
2023/03/11 01:33:21;;;;;;;1.93;1.20;;;;;;;9.94;100.00;93264.34;4978397;28;20761;-72
2023/03/11 01:35:48;;;;;;;1.43;1.30;;;;;;;10.01;100.00;93251.13;4952921;28;20903;-73
2023/03/11 01:38:14;;;;;;;2.60;1.20;;;;;;;10.03;100.00;93257.69;4934847;28;20232;-72
2023/03/11 01:40:47;;;;;;;2.70;1.40;;;;;;;9.80;100.00;93255.22;4944494;28;20267;-72
2023/03/11 01:43:35;;;;;;;1.53;1.20;;;;;;;9.97;100.00;93252.63;4921175;28;20294;-73
2023/03/11 01:46:01;;;;;;;2.30;1.40;;;;;;;9.98;100.00;93243.78;4945672;28;20239;-72
2023/03/11 01:48:26;;;;;;;1.87;1.20;;;;;;;9.99;100.00;93251.38;4949439;28;20255;-72
2023/03/11 01:50:52;;;;;;;1.77;1.47;;;;;;;9.82;100.00;93247.16;4952216;28;20225;-73
2023/03/11 01:53:17;;;;;;;2.90;1.53;;;;;;;9.59;100.00;93252.50;4912952;28;20631;-72
2023/03/11 01:55:43;;;;;;;3.17;1.60;;;;;;;9.63;100.00;93257.00;4947226;28;20217;-73
2023/03/11 01:58:11;;;;;;;3.70;2.10;;;;;;;9.72;100.00;93268.66;4945263;28;20221;-73
2023/03/11 02:00:37;;;;;;;5.00;2.70;;;;;;;9.86;100.00;93269.19;4956140;28;20241;-73
2023/03/11 02:03:06;;;;;;;4.70;2.73;;;;;;;9.65;100.00;93264.63;4952740;28;20288;-71
2023/03/11 02:05:32;;;;;;;7.70;2.93;;;;;;;9.62;100.00;93276.34;4923261;28;20254;-73
2023/03/11 02:07:57;;;;;;;4.97;2.60;;;;;;;9.73;100.00;93259.00;4915167;28;20717;-73
2023/03/11 02:10:22;;;;;;;4.70;3.07;;;;;;;9.65;100.00;93270.63;4968630;28;20635;-74
2023/03/11 02:12:48;;;;;;;3.27;2.50;;;;;;;9.63;100.00;93282.34;4931899;28;20640;-73
2023/03/11 02:15:13;;;;;;;4.07;2.80;;;;;;;9.88;100.00;93288.81;4914285;28;20233;-74
2023/03/11 02:17:39;;;;;;;3.13;2.50;;;;;;;9.91;100.00;93285.72;4961974;28;20299;-73
2023/03/11 02:20:27;;;;;;;5.03;2.53;;;;;;;9.80;100.00;93304.06;4938210;28;20511;-73
2023/03/11 02:22:56;;;;;;;5.23;2.60;;;;;;;9.72;100.00;93299.25;4943131;28;20272;-73
2023/03/11 02:25:30;;;;;;;4.37;2.73;;;;;;;9.88;100.00;93303.69;4947189;28;20750;-73
2023/03/11 02:27:55;;;;;;;4.90;2.70;;;;;;;9.92;100.00;93300.38;4969954;28;20231;-74
2023/03/11 02:30:21;;;;;;;4.60;2.77;;;;;;;9.54;100.00;93294.97;4952060;28;20240;-73
2023/03/11 02:32:47;;;;;;;8.07;3.10;;;;;;;9.44;100.00;93290.34;4920352;28;20841;-74
2023/03/11 02:35:13;;;;;;;4.57;3.10;;;;;;;9.73;100.00;93304.22;4960022;28;20243;-73
2023/03/11 02:37:46;;;;;;;3.77;2.40;;;;;;;9.76;100.00;93292.50;4959783;28;20243;-72
2023/03/11 02:40:34;;;;;;;3.87;2.60;;;;;;;9.81;100.00;93282.16;4968588;28;20236;-73
2023/03/11 02:43:00;;;;;;;5.23;2.00;;;;;;;9.92;100.00;93276.88;4955092;28;20223;-72
2023/03/11 02:45:26;;;;;;;3.63;1.70;;;;;;;10.02;100.00;93276.25;4944688;28;20239;-73
2023/03/11 02:47:52;;;;;;;2.00;1.60;;;;;;;10.08;100.00;93281.31;4944392;28;20233;-73
2023/03/11 02:50:17;;;;;;;4.03;1.50;;;;;;;10.16;100.00;93288.00;4946300;28;20231;-73
2023/03/11 02:52:42;;;;;;;2.60;1.60;;;;;;;10.17;100.00;93288.81;4953162;28;20651;-73
2023/03/11 02:55:10;;;;;;;1.60;1.50;;;;;;;10.28;100.00;93293.97;4946039;28;20237;-74
2023/03/11 02:57:36;;;;;;;3.10;2.03;;;;;;;10.33;100.00;93295.84;4946062;28;20291;-74
2023/03/11 03:00:09;;;;;;;2.53;1.60;;;;;;;10.37;100.00;93297.75;4926503;28;20243;-74
2023/03/11 03:02:35;;;;;;;3.03;1.60;;;;;;;10.44;100.00;93303.63;4932709;28;20232;-72
2023/03/11 03:05:00;;;;;;;2.07;1.63;;;;;;;10.32;100.00;93296.91;4945437;28;20612;-74
2023/03/11 03:07:26;;;;;;;2.33;1.77;;;;;;;10.35;100.00;93297.22;4936132;28;20227;-73
2023/03/11 03:09:51;;;;;;;3.07;1.67;;;;;;;10.29;100.00;93295.56;4930238;28;20233;-73
2023/03/11 03:12:17;;;;;;;1.83;1.50;;;;;;;10.41;100.00;93304.09;4935426;28;20279;-74
2023/03/11 03:14:42;;;;;;;4.10;2.07;;;;;;;10.28;100.00;93301.81;4968496;28;20292;-74
2023/03/11 03:17:07;;;;;;;3.50;2.20;;;;;;;10.31;100.00;93306.56;4960982;28;20773;-73
2023/03/11 03:19:33;;;;;;;4.53;3.00;;;;;;;9.98;100.00;93307.28;4981379;28;20293;-73
2023/03/11 03:21:58;;;;;;;6.00;3.00;;;;;;;9.99;100.00;93313.28;4949299;28;20892;-74
2023/03/11 03:24:24;;;;;;;5.73;3.17;;;;;;;9.87;100.00;93318.56;4962512;28;20229;-74
2023/03/11 03:26:50;;;;;;;6.80;3.50;;;;;;;9.89;100.00;93318.34;4932428;28;20235;-74
2023/03/11 03:29:16;;;;;;;7.27;3.40;;;;;;;9.99;100.00;93316.72;4949610;28;20232;-75
2023/03/11 03:31:41;;;;;;;3.70;3.00;;;;;;;9.90;100.00;93318.13;4973331;28;20294;-74
2023/03/11 03:34:07;;;;;;;6.70;3.60;;;;;;;9.91;100.00;93319.69;4928205;28;20664;-74
2023/03/11 03:36:32;;;;;;;6.43;3.70;;;;;;;9.69;100.00;93318.78;4947088;28;20232;-74
2023/03/11 03:38:58;;;;;;;5.03;3.43;;;;;;;9.92;100.00;93317.88;4956289;28;20224;-74
2023/03/11 03:41:24;;;;;;;6.60;3.80;;;;;;;9.98;100.00;93312.50;4933435;28;20666;-74
2023/03/11 03:43:49;;;;;;;5.70;3.50;;;;;;;9.86;100.00;93311.00;4919079;28;20353;-74
2023/03/11 03:46:15;;;;;;;5.37;3.50;;;;;;;10.04;100.00;93298.50;4944504;28;20234;-73
2023/03/11 03:48:40;;;;;;;5.33;3.40;;;;;;;9.95;100.00;93306.97;4965366;28;20241;-73
2023/03/11 03:51:07;;;;;;;6.10;4.07;;;;;;;9.94;100.00;93313.19;4947842;28;20794;-74
2023/03/11 03:53:33;;;;;;;5.50;3.90;;;;;;;9.93;100.00;93311.63;4933432;28;20272;-74
2023/03/11 03:56:02;;;;;;;5.57;3.80;;;;;;;9.84;100.00;93305.97;4947957;28;20707;-74
2023/03/11 03:58:27;;;;;;;6.87;3.70;;;;;;;9.67;100.00;93292.09;4939964;28;20263;-74
2023/03/11 04:00:57;;;;;;;8.47;3.83;;;;;;;9.80;100.00;93298.84;4932408;28;21225;-73
2023/03/11 04:03:23;;;;;;;6.67;4.00;;;;;;;9.94;100.00;93300.94;4957428;28;20227;-73
2023/03/11 04:05:49;;;;;;;5.00;3.70;;;;;;;9.95;100.00;93302.53;4934951;28;20228;-74
2023/03/11 04:08:14;;;;;;;6.00;3.80;;;;;;;9.95;100.00;93299.91;4961075;28;20260;-73
2023/03/11 04:10:40;;;;;;;7.73;4.00;;;;;;;10.01;100.00;93288.50;4932947;28;20259;-73
2023/03/11 04:13:05;;;;;;;6.10;3.87;;;;;;;9.99;100.00;93287.97;4934639;28;20340;-74
2023/03/11 04:15:31;;;;;;;6.23;4.03;;;;;;;9.86;100.00;93287.47;4948397;28;20251;-73
2023/03/11 04:17:56;;;;;;;6.40;4.00;;;;;;;9.84;100.00;93289.53;4951056;28;20236;-73
2023/03/11 04:20:21;;;;;;;7.17;4.20;;;;;;;9.84;100.00;93295.53;4947893;28;20302;-73
2023/03/11 04:22:47;;;;;;;7.30;3.83;;;;;;;9.87;100.00;93296.88;4931405;28;20924;-73
2023/03/11 04:25:12;;;;;;;5.80;4.03;;;;;;;9.66;100.00;93292.31;4928923;28;20302;-73
2023/03/11 04:27:41;;;;;;;8.83;4.00;;;;;;;9.69;100.00;93291.88;4931115;28;21036;-73
2023/03/11 04:30:08;;;;;;;5.13;3.70;;;;;;;9.61;100.00;93303.47;4944479;28;20229;-73
2023/03/11 04:32:33;;;;;;;6.30;3.50;;;;;;;9.60;100.00;93301.09;4949126;28;20219;-73
2023/03/11 04:34:58;;;;;;;6.50;3.30;;;;;;;9.70;100.00;93293.44;4948859;28;20740;-73
2023/03/11 04:37:27;;;;;;;2.53;1.87;;;;;;;9.97;100.00;93299.69;4960930;28;20279;-74
2023/03/11 04:39:53;;;;;;;2.03;1.00;;;;;;;10.24;100.00;93294.66;4949470;28;20229;-74
2023/03/11 04:42:18;;;;;;;0.97;0.90;;;;;;;10.31;98.47;93290.06;4966681;28;20223;-73
2023/03/11 04:44:43;;;;;;;1.20;0.90;;;;;;;10.45;94.64;93294.75;4942910;28;20240;-72
2023/03/11 04:47:09;;;;;;;0.83;0.83;;;;;;;10.60;94.70;93291.59;4923440;28;20229;-72
2023/03/11 04:49:34;;;;;;;0.93;0.90;;;;;;;10.55;96.74;93296.72;4965095;28;20248;-72
2023/03/11 04:52:00;;;;;;;1.23;0.83;;;;;;;10.60;94.95;93294.19;4981204;28;20283;-74
2023/03/11 04:54:25;;;;;;;2.03;0.97;;;;;;;10.65;94.20;93289.03;4920430;28;20242;-73
2023/03/11 04:56:51;;;;;;;0.90;0.90;;;;;;;10.67;93.53;93293.00;4933928;28;20235;-74
2023/03/11 04:59:16;;;;;;;0.90;0.80;;;;;;;10.73;92.90;93297.25;4950165;28;20240;-73
2023/03/11 05:01:42;;;;;;;1.27;1.00;;;;;;;10.73;93.42;93299.09;4947629;28;20236;-73
2023/03/11 05:04:07;;;;;;;1.67;0.80;;;;;;;10.67;91.00;93308.69;4929118;28;20228;-73
2023/03/11 05:06:33;;;;;;;0.80;0.80;;;;;;;10.80;91.43;93313.59;4943824;28;20298;-73
2023/03/11 05:08:58;;;;;;;0.93;0.90;;;;;;;10.78;90.79;93314.88;4965025;28;20227;-73
2023/03/11 05:11:24;;;;;;;0.93;0.90;;;;;;;10.79;90.13;93312.00;4947401;28;20237;-74
2023/03/11 05:13:49;;;;;;;1.00;1.00;;;;;;;10.90;88.97;93315.56;4949671;28;20775;-74
2023/03/11 05:16:15;;;;;;;0.90;0.90;;;;;;;10.97;89.50;93325.84;4963689;28;20893;-73
2023/03/11 05:18:40;;;;;;;1.03;0.90;;;;;;;10.96;90.04;93326.91;4953561;28;20225;-73
2023/03/11 05:21:06;;;;;;;0.97;0.90;;;;;;;10.97;88.34;93328.47;4982957;28;20232;-74
2023/03/11 05:23:31;;;;;;;0.93;0.80;;;;;;;10.90;89.02;93320.00;4948084;28;20233;-74
2023/03/11 05:25:57;;;;;;;2.00;1.00;;;;;;;10.98;87.44;93338.72;4952718;28;20237;-74
2023/03/11 05:28:22;;;;;;;0.93;0.80;;;;;;;11.01;87.00;93338.22;4962596;28;20220;-74
2023/03/11 05:30:48;;;;;;;2.73;1.07;;;;;;;11.02;87.85;93346.88;4941463;28;20327;-74
2023/03/11 05:33:13;;;;;;;1.07;0.90;;;;;;;11.06;88.37;93346.16;4936917;28;20587;-74
2023/03/11 05:35:39;;;;;;;1.10;1.00;;;;;;;10.99;87.16;93342.91;4930962;28;20300;-73
2023/03/11 05:38:04;;;;;;;2.07;1.00;;;;;;;10.99;87.17;93342.91;4981563;28;20233;-73
2023/03/11 05:40:30;;;;;;;1.00;0.90;;;;;;;11.07;87.05;93350.34;4981245;28;20347;-75
2023/03/11 05:42:55;;;;;;;1.27;1.00;;;;;;;11.07;86.42;93355.59;4962515;28;20233;-77
2023/03/11 05:45:21;;;;;;;1.30;0.90;;;;;;;11.16;85.60;93362.00;4913540;28;20335;-74
2023/03/11 05:47:46;;;;;;;0.90;0.90;;;;;;;11.20;86.55;93364.94;4933893;28;20997;-74
2023/03/11 05:50:12;;;;;;;1.10;0.93;;;;;;;11.18;86.76;93364.38;4944019;28;20256;-73
2023/03/11 05:52:37;;;;;;;1.43;0.90;;;;;;;11.24;86.69;93379.94;4963093;28;20968;-74
2023/03/11 05:55:03;;;;;;;1.10;1.00;;;;;;;11.31;86.62;93380.53;4949243;28;20233;-74
2023/03/11 05:57:34;;;;;;;1.47;1.03;;;;;;;11.30;86.03;93383.38;4924404;28;20224;-77
2023/03/11 06:00:00;;;;;;;1.00;1.00;;;;;;;11.26;85.77;93393.56;4949358;28;20236;-72
2023/03/11 06:02:25;;;;;;;1.10;1.00;;;;;;;11.28;85.86;93395.94;4948103;28;20243;-74
2023/03/11 06:04:51;;;;;;;1.03;0.90;;;;;;;11.32;85.90;93395.22;4930434;28;20240;-73
2023/03/11 06:07:16;;;;;;;2.13;1.10;;;;;;;11.31;86.26;93400.69;4931652;28;20247;-73
2023/03/11 06:09:42;;;;;;;1.70;1.00;;;;;;;11.33;86.10;93399.44;4968046;28;20668;-73
2023/03/11 06:12:07;;;;;;;2.67;1.57;;;;;;;11.38;86.83;93402.13;4939885;28;20224;-74
2023/03/11 06:14:33;;;;;;;1.20;1.10;;;;;;;11.34;85.77;93405.47;4951503;28;20233;-73
2023/03/11 06:16:58;;;;;;;1.53;1.20;;;;;;;11.33;85.75;93404.66;4953970;28;20371;-73
2023/03/11 06:19:24;;;;;;;1.63;1.20;;;;;;;11.36;87.12;93409.44;4968716;28;20234;-73
2023/03/11 06:21:50;;;;;;;1.60;1.30;;;;;;;11.28;87.06;93409.81;4964484;28;20267;-74
2023/03/11 06:24:16;;;;;;;1.77;1.27;;;;;;;11.26;87.86;93413.72;4944828;28;20320;-73
2023/03/11 06:26:42;;;;;;;2.17;1.20;;;;;;;11.30;88.31;93420.84;4944815;28;20679;-73
2023/03/11 06:29:12;;;;;;;1.93;1.10;;;;;;;11.25;88.43;93412.91;4947616;28;20239;-73
2023/03/11 06:31:38;;;;;;;1.30;1.10;;;;;;;11.21;91.31;93416.25;4912347;28;20236;-73
2023/03/11 06:34:05;;;;;;;3.00;1.47;;;;;;;11.20;91.08;93415.47;4933393;28;20252;-74
2023/03/11 06:36:30;;;;;;;2.90;1.50;;;;;;;11.26;90.67;93411.09;4951204;28;20405;-74
2023/03/11 06:38:56;;;;;;;3.43;1.50;;;;;;;11.24;90.72;93415.78;4938097;28;20891;-74
2023/03/11 06:41:21;;;;;;;4.40;1.77;;;;;;;11.33;90.34;93416.97;4935299;28;20326;-74
2023/03/11 06:43:46;;;;;;;3.90;1.70;;;;;;;11.37;91.48;93412.81;4951622;28;20229;-74
2023/03/11 06:46:15;;;;;;;3.57;1.90;;;;;;;11.23;92.38;93408.94;4936198;28;20220;-74
2023/03/11 06:48:40;;;;;;;3.20;1.83;;;;;;;11.21;92.48;93414.44;4954505;28;20855;-74
2023/03/11 06:51:06;;;;;;;3.70;2.20;;;;;;;11.20;93.58;93412.84;4933764;28;20327;-74
2023/03/11 06:53:31;;;;;;;5.10;2.47;;;;;;;11.36;93.93;93413.88;4931394;28;20279;-74
2023/03/11 06:56:08;;;;;;;3.67;2.30;;;;;;;11.37;93.45;93415.44;4924297;28;20239;-74
2023/03/11 06:58:35;;;;;;;3.30;2.13;;;;;;;11.32;92.43;93420.63;4949112;28;20303;-74
2023/03/11 07:01:02;;;;;;;3.37;1.90;;;;;;;11.43;91.79;93420.53;4951415;28;20229;-74
2023/03/11 07:03:28;;;;;;;4.93;2.40;;;;;;;11.44;92.34;93416.06;4952701;28;20257;-74
2023/03/11 07:05:53;;;;;;;3.83;1.93;;;;;;;11.45;92.14;93422.91;4921577;28;20247;-73
2023/03/11 07:08:19;;;;;;;4.90;1.93;;;;;;;11.57;91.65;93420.97;4976836;28;20339;-72
2023/03/11 07:10:44;;;;;;;2.87;2.00;;;;;;;11.77;91.38;93426.50;4947460;28;20229;-73
2023/03/11 07:13:10;;;;;;;4.87;2.33;;;;;;;11.82;91.69;93426.56;4949757;28;20228;-72
2023/03/11 07:15:35;;;;;;;3.30;1.80;;;;;;;11.57;89.41;93420.97;4948654;28;20316;-72
2023/03/11 07:18:01;;;;;;;2.50;1.53;;;;;;;11.60;89.64;93425.72;4953262;28;20225;-72
2023/03/11 07:20:26;;;;;;;3.90;1.80;;;;;;;11.65;90.23;93414.53;4932230;28;20458;-73
2023/03/11 07:22:52;;;;;;;4.53;1.90;;;;;;;11.81;89.53;93417.13;4966182;28;20275;-72
2023/03/11 07:25:17;;;;;;;4.20;2.53;;;;;;;11.88;89.28;93415.09;4953026;28;20758;-73
2023/03/11 07:27:43;;;;;;;4.00;1.97;;;;;;;11.96;89.24;93409.44;4946446;28;20228;-73
2023/03/11 07:30:09;;;;;;;2.57;1.60;;;;;;;12.02;87.60;93405.84;4975651;28;20233;-72
2023/03/11 07:32:34;;;;;;;2.40;1.60;;;;;;;12.01;87.89;93396.38;4951655;28;20236;-72
2023/03/11 07:35:00;;;;;;;2.93;1.63;;;;;;;12.07;87.21;93394.59;4962593;28;20263;-73
2023/03/11 07:37:25;;;;;;;4.23;1.70;;;;;;;12.12;86.20;93392.03;4952414;28;20231;-73
2023/03/11 07:39:51;;;;;;;2.20;1.63;;;;;;;12.09;86.41;93393.31;4955996;28;20262;-74
2023/03/11 07:42:16;;;;;;;3.43;2.13;;;;;;;12.21;87.03;93389.75;4951598;28;20292;-73
2023/03/11 07:44:41;;;;;;;7.70;3.00;;;;;;;12.03;87.72;93386.44;4937764;28;20907;-73
2023/03/11 07:47:07;;;;;;;5.17;3.00;;;;;;;12.48;85.93;93380.88;4965977;28;20259;-73
2023/03/11 07:49:32;;;;;;;5.77;3.53;;;;;;;12.48;84.00;93380.06;4980571;28;20260;-72
2023/03/11 07:51:58;;;;;;;5.87;4.03;;;;;;;12.40;83.13;93383.13;4935448;28;20238;-72
2023/03/11 07:54:23;;;;;;;5.13;3.70;;;;;;;12.41;82.04;93369.78;4975894;28;20221;-73
2023/03/11 07:56:49;;;;;;;3.80;2.50;;;;;;;12.57;81.25;93370.69;4952133;28;20813;-72
2023/03/11 07:59:14;;;;;;;2.53;1.70;;;;;;;12.56;80.57;93374.38;4948301;28;20278;-72
2023/03/11 08:01:45;;;;;;;3.87;2.00;;;;;;;12.50;79.89;93359.63;4934456;28;20340;-75
2023/03/11 08:04:11;;;;;;;2.90;1.80;;;;;;;12.68;80.21;93354.78;4938025;28;20332;-74
2023/03/11 08:06:37;;;;;;;4.70;2.40;;;;;;;12.70;79.19;93350.09;4948336;28;20945;-74
2023/03/11 08:09:07;;;;;;;2.53;1.50;;;;;;;12.66;79.84;93345.56;4929444;28;20228;-74
2023/03/11 08:11:33;;;;;;;2.23;1.50;;;;;;;12.62;78.95;93334.00;4946031;28;20245;-74
2023/03/11 08:13:58;;;;;;;2.27;1.50;;;;;;;12.70;78.70;93336.97;4947332;28;20607;-73
2023/03/11 08:16:24;;;;;;;3.07;1.40;;;;;;;12.77;79.41;93321.00;4944928;28;20244;-73
2023/03/11 08:18:50;;;;;;;2.90;1.53;;;;;;;12.86;79.18;93311.63;4909469;28;20221;-74
2023/03/11 08:21:18;;;;;;;2.40;1.50;;;;;;;12.67;78.53;93308.59;4948820;28;20638;-74
2023/03/11 08:23:46;;;;;;;3.03;1.60;;;;;;;12.69;76.81;93313.59;4936496;28;20237;-73
2023/03/11 08:26:13;;;;;;;3.00;1.60;;;;;;;12.81;77.57;93306.31;4964419;28;20233;-73
2023/03/11 08:28:38;;;;;;;2.27;1.50;;;;;;;12.89;76.24;93302.44;4920503;28;20324;-73
2023/03/11 08:31:17;;;;;;;5.13;1.60;;;;;;;12.95;75.16;93296.97;4965692;28;20430;-74
2023/03/11 08:33:44;;;;;;;2.43;1.50;;;;;;;13.10;75.36;93304.97;4946913;28;20315;-74
2023/03/11 08:36:09;;;;;;;5.33;2.23;;;;;;;13.11;76.65;93295.25;4968431;28;20233;-74
2023/03/11 08:38:35;;;;;;;3.77;1.57;;;;;;;13.37;75.23;93279.34;4943219;28;20235;-74
2023/03/11 08:41:00;;;;;;;2.80;1.60;;;;;;;13.52;75.33;93285.75;4969015;28;20231;-74
2023/03/11 08:43:26;;;;;;;3.70;1.50;;;;;;;13.42;73.86;93287.25;4949913;28;20334;-75
2023/03/11 08:45:51;;;;;;;3.30;1.57;;;;;;;13.57;73.29;93283.91;4945766;28;20736;-73
2023/03/11 08:48:17;;;;;;;3.07;1.60;;;;;;;13.78;71.31;93292.66;4935574;28;20229;-74
2023/03/11 08:50:42;;;;;;;3.03;1.63;;;;;;;13.92;71.51;93277.97;4938325;28;20283;-74
2023/03/11 08:53:08;;;;;;;6.83;1.67;;;;;;;14.06;70.42;93274.59;4946187;28;20232;-74
2023/03/11 08:55:33;;;;;;;3.60;1.50;;;;;;;14.00;70.14;93277.44;4945532;28;21004;-72
2023/03/11 08:57:59;;;;;;;3.20;1.43;;;;;;;13.76;68.26;93282.38;4950234;28;20735;-73
2023/03/11 09:00:24;;;;;;;1.30;1.20;;;;;;;13.74;67.48;93279.22;4963905;28;20228;-73
2023/03/11 09:02:50;;;;;;;2.67;1.27;;;;;;;14.05;68.23;93275.63;4964360;28;20232;-74
2023/03/11 09:05:15;;;;;;;4.03;1.50;;;;;;;14.08;67.83;93280.38;4950718;28;20242;-72
2023/03/11 09:07:41;;;;;;;1.90;1.40;;;;;;;13.82;66.90;93259.53;4953824;28;20221;-72
2023/03/11 09:10:07;;;;;;;3.10;1.40;;;;;;;13.77;67.26;93277.91;4934945;28;20240;-72
2023/03/11 09:12:32;;;;;;;2.17;1.37;;;;;;;13.82;67.00;93270.06;4970192;28;20241;-74
2023/03/11 09:14:58;;;;;;;3.50;1.40;;;;;;;13.79;67.70;93266.09;4941178;28;20267;-75
2023/03/11 09:17:26;;;;;;;5.53;1.40;;;;;;;13.83;67.81;93259.25;4941001;28;20292;-74
2023/03/11 09:19:52;;;;;;;3.43;1.50;;;;;;;14.09;67.38;93255.63;4932149;28;20248;-73
2023/03/11 09:22:17;;;;;;;3.97;1.70;;;;;;;14.28;67.68;93265.66;4946844;28;20973;-73
2023/03/11 09:24:43;;;;;;;2.30;1.30;;;;;;;14.22;66.72;93253.53;4947385;28;20243;-73
2023/03/11 09:27:09;;;;;;;2.03;1.40;;;;;;;14.41;66.41;93249.34;4977557;28;20426;-74
2023/03/11 09:29:35;;;;;;;3.93;1.43;;;;;;;14.36;65.99;93254.63;4942303;28;20232;-74
2023/03/11 09:32:00;;;;;;;3.33;1.50;;;;;;;14.47;66.87;93251.72;4925694;28;20793;-74
2023/03/11 09:34:26;;;;;;;2.90;1.50;;;;;;;14.48;65.75;93253.31;4948474;28;20228;-73
2023/03/11 09:36:51;;;;;;;2.60;1.30;;;;;;;14.62;65.62;93248.28;4965873;28;20236;-75
2023/03/11 09:39:17;;;;;;;5.00;1.60;;;;;;;14.78;66.72;93245.38;4948286;28;20256;-75
2023/03/11 09:42:21;;;;;;;3.83;1.60;;;;;;;14.97;66.49;93243.00;4949004;28;20232;-74
2023/03/11 09:44:59;;;;;;;3.63;1.60;;;;;;;15.14;64.99;93256.63;4923571;28;20241;-73
2023/03/11 09:47:27;;;;;;;4.87;1.60;;;;;;;15.09;64.47;93247.97;4934109;28;20236;-75
2023/03/11 09:50:05;;;;;;;3.83;1.30;;;;;;;15.40;63.54;93260.75;4937321;28;20244;-74
2023/03/11 09:52:36;;;;;;;3.57;1.47;;;;;;;15.52;63.87;93239.41;4943454;28;20233;-74
2023/03/11 09:55:02;;;;;;;2.17;1.37;;;;;;;15.51;62.76;93240.47;4940888;28;20726;-73
2023/03/11 09:57:31;;;;;;;2.77;1.50;;;;;;;15.38;63.64;93238.38;4948211;28;20256;-74
2023/03/11 09:59:56;;;;;;;3.00;1.40;;;;;;;15.43;63.44;93230.44;4937340;28;20240;-74
2023/03/11 10:02:26;;;;;;;3.50;1.50;;;;;;;15.36;62.99;93229.94;4926729;28;20239;-75
2023/03/11 10:04:54;;;;;;;2.00;1.30;;;;;;;15.40;62.04;93236.25;4942106;28;20238;-73
2023/03/11 10:07:22;;;;;;;2.63;1.50;;;;;;;15.55;59.91;93248.63;4943740;28;20261;-73
2023/03/11 10:09:58;;;;;;;2.03;1.40;;;;;;;15.61;55.65;93248.31;4940981;28;20315;-74
2023/03/11 10:12:51;;;;;;;2.97;1.50;;;;;;;15.70;55.55;93243.25;4935633;28;20236;-74
2023/03/11 10:15:40;;;;;;;3.07;1.70;;;;;;;15.86;55.45;93253.47;4952324;28;20300;-74
2023/03/11 10:18:21;;;;;;;2.20;1.40;;;;;;;16.06;54.10;93258.63;4937996;28;20275;-74
2023/03/11 10:20:56;;;;;;;2.43;1.50;;;;;;;16.38;54.14;93258.16;4936204;28;21076;-73
2023/03/11 10:23:52;;;;;;;3.90;1.40;;;;;;;16.03;53.23;93253.09;4942421;28;20294;-74
2023/03/11 10:26:22;;;;;;;2.33;1.50;;;;;;;15.69;56.04;93253.03;4940651;28;20268;-73
2023/03/11 10:28:54;;;;;;;2.97;1.40;;;;;;;15.99;56.80;93268.72;4969098;28;20233;-74
2023/03/11 10:31:19;;;;;;;3.43;1.40;;;;;;;15.89;55.84;93254.78;4951885;28;20764;-74
2023/03/11 10:33:48;;;;;;;2.77;1.60;;;;;;;15.81;56.61;93258.75;4941606;28;20225;-74
2023/03/11 10:36:17;;;;;;;2.30;1.63;;;;;;;15.80;57.55;93251.94;4948488;28;20228;-75
2023/03/11 10:38:48;;;;;;;4.37;1.80;;;;;;;15.53;58.76;93251.50;4916559;28;20224;-75
2023/03/11 10:41:25;;;;;;;3.50;1.43;;;;;;;15.10;57.32;93245.03;4944293;28;20236;-73
2023/03/11 10:44:02;;;;;;;3.87;1.53;;;;;;;15.13;58.81;93239.25;4933672;28;20229;-75
2023/03/11 10:46:28;;;;;;;3.63;1.70;;;;;;;15.05;62.38;93250.31;4937191;28;20263;-74
2023/03/11 10:48:54;;;;;;;4.53;1.80;;;;;;;15.11;61.55;93249.28;4932961;28;20624;-74
2023/03/11 10:51:27;;;;;;;3.40;1.70;;;;;;;15.01;63.30;93261.66;4965195;28;20236;-74
2023/03/11 10:53:54;;;;;;;2.17;1.60;;;;;;;14.63;70.21;93277.00;4926327;28;20229;-72
2023/03/11 10:56:29;;;;;;;2.40;1.50;;;;;;;13.98;69.60;93279.53;4944307;28;20976;-74
2023/03/11 10:58:56;;;;;;;2.87;1.60;;;;;;;13.62;75.86;93291.00;4929712;28;20236;-73
2023/03/11 11:01:22;;;;;;;3.07;1.53;;;;;;;13.66;76.38;93274.47;4954400;28;20738;-74
2023/03/11 11:03:49;;;;;;;3.03;1.70;;;;;;;13.78;74.37;93280.28;4942589;28;20225;-74
2023/03/11 11:06:29;;;;;;;3.33;1.70;;;;;;;13.95;74.22;93286.13;4938405;28;20226;-75
2023/03/11 11:09:06;;;;;;;5.23;1.80;;;;;;;13.99;71.76;93281.13;4945004;28;20274;-74
2023/03/11 11:11:32;;;;;;;2.53;1.60;;;;;;;13.89;68.88;93289.00;4959040;28;20260;-73
2023/03/11 11:13:59;;;;;;;3.83;1.60;;;;;;;14.13;66.65;93275.13;4944200;28;20241;-74
2023/03/11 11:16:24;;;;;;;1.70;1.40;;;;;;;14.34;67.41;93278.56;4926546;28;20229;-74
2023/03/11 11:19:09;;;;;;;1.80;1.33;;;;;;;14.34;66.51;93272.53;4946569;28;20305;-77
2023/03/11 11:21:38;;;;;;;3.87;1.57;;;;;;;14.84;66.52;93260.13;4942529;28;20245;-74
2023/03/11 11:24:03;;;;;;;3.73;1.77;;;;;;;15.17;65.24;93258.72;4952507;28;20231;-74
2023/03/11 11:26:29;;;;;;;2.77;1.70;;;;;;;14.99;64.38;93242.72;4942759;28;20228;-74
2023/03/11 11:29:04;;;;;;;3.27;1.70;;;;;;;14.92;64.79;93240.38;4950565;28;20274;-75
2023/03/11 11:31:29;;;;;;;5.37;1.60;;;;;;;15.02;65.77;93239.56;4950301;28;20262;-74